Time;durP1;ratioP1;P1;durP2;ratioP2;P2;SDS_P1;SDS_P2;PMS_P1;PMS_P2;Temp;Humidity;BMP_temperature;BMP_pressure;BME280_temperature;BME280_humidity;BME280_pressure;Samples;Min_cycle;Max_cycle;Signal;HPM_P1;HPM_P2
2022/04/19 00:00:22;;;;;;;4.93;2.80;;;8.40;84.50;;;;;;5073721;28;20027;-76
2022/04/19 00:02:48;;;;;;;3.75;2.03;;;8.40;84.20;;;;;;5091593;28;20422;-79
2022/04/19 00:05:13;;;;;;;4.85;2.72;;;8.40;84.10;;;;;;5091605;28;20016;-77
2022/04/19 00:07:39;;;;;;;3.45;2.22;;;8.40;83.90;;;;;;5091364;28;20020;-76
2022/04/19 00:10:06;;;;;;;4.68;2.28;;;8.40;83.90;;;;;;5091874;28;20116;-77
2022/04/19 00:12:31;;;;;;;3.35;2.08;;;8.40;84.00;;;;;;5091537;28;20028;-79
2022/04/19 00:14:57;;;;;;;4.80;2.63;;;8.40;84.10;;;;;;5073435;28;20031;-78
2022/04/19 00:17:22;;;;;;;3.47;1.85;;;8.20;84.50;;;;;;5090941;28;20043;-79
2022/04/19 00:19:48;;;;;;;4.18;2.30;;;8.30;84.50;;;;;;5091395;28;20533;-78
2022/04/19 00:22:13;;;;;;;4.43;1.98;;;8.30;84.30;;;;;;5091459;28;20017;-77
2022/04/19 00:24:40;;;;;;;4.13;2.33;;;8.30;84.20;;;;;;5091463;28;20106;-77
2022/04/19 00:27:05;;;;;;;6.65;2.25;;;8.30;84.10;;;;;;5090906;28;20020;-80
2022/04/19 00:29:31;;;;;;;4.18;2.45;;;8.30;84.30;;;;;;5073061;28;20546;-77
2022/04/19 00:31:56;;;;;;;2.78;2.22;;;8.30;84.20;;;;;;5091182;28;20526;-79
2022/04/19 00:34:22;;;;;;;4.22;2.30;;;8.30;84.10;;;;;;5091214;28;20034;-76
2022/04/19 00:36:47;;;;;;;3.45;2.78;;;8.20;84.00;;;;;;5090700;28;20446;-76
2022/04/19 00:39:13;;;;;;;4.95;2.40;;;8.20;84.00;;;;;;5091527;28;20099;-77
2022/04/19 00:41:38;;;;;;;3.50;2.15;;;8.20;83.90;;;;;;5090933;28;20036;-79
2022/04/19 00:44:04;;;;;;;3.05;2.00;;;8.10;84.00;;;;;;5072973;28;20073;-78
2022/04/19 00:46:30;;;;;;;2.80;2.05;;;8.10;84.00;;;;;;5090353;28;20020;-79
2022/04/19 00:48:57;;;;;;;2.95;2.20;;;8.10;84.00;;;;;;5072956;28;20023;-78
2022/04/19 00:51:24;;;;;;;3.50;2.30;;;8.10;83.90;;;;;;5090613;28;20039;-78
2022/04/19 00:53:50;;;;;;;3.47;2.10;;;8.00;84.10;;;;;;5091081;28;20456;-78
2022/04/19 00:56:16;;;;;;;2.67;1.83;;;8.00;84.00;;;;;;5090150;28;20579;-78
2022/04/19 00:58:42;;;;;;;2.42;1.73;;;8.00;84.10;;;;;;5090875;28;20114;-77
2022/04/19 01:01:07;;;;;;;2.95;1.80;;;8.00;84.20;;;;;;5090568;28;20039;-76
2022/04/19 01:03:33;;;;;;;2.53;2.08;;;8.00;84.30;;;;;;5090952;28;20028;-79
2022/04/19 01:05:59;;;;;;;3.05;1.67;;;8.00;84.40;;;;;;5071893;28;20019;-78
2022/04/19 01:08:26;;;;;;;3.25;2.42;;;7.90;84.60;;;;;;5090725;28;20027;-78
2022/04/19 01:13:17;;;;;;;5.25;2.22;;;7.90;84.90;;;;;;5090527;28;20707;-78
2022/04/19 01:13:37;;;;;;;2.15;1.95;;;7.90;85.00;;;;;;5090369;28;20035;-78
2022/04/19 01:16:03;;;;;;;3.47;1.90;;;7.90;85.30;;;;;;5090546;28;20069;-75
2022/04/19 01:18:29;;;;;;;3.55;2.40;;;7.90;85.50;;;;;;5090842;28;20044;-79
2022/04/19 01:20:55;;;;;;;2.40;1.90;;;7.80;85.40;;;;;;5090414;28;20032;-77
2022/04/19 01:23:22;;;;;;;3.67;2.20;;;7.90;85.30;;;;;;5090621;28;20111;-79
2022/04/19 01:25:48;;;;;;;3.05;1.92;;;7.80;85.30;;;;;;5089852;28;20024;-77
2022/04/19 01:28:15;;;;;;;2.85;2.30;;;7.80;85.30;;;;;;5071816;28;20031;-78
2022/04/19 01:30:43;;;;;;;2.33;1.60;;;7.70;85.90;;;;;;5089689;28;20020;-79
2022/04/19 01:33:08;;;;;;;4.75;2.33;;;7.70;85.90;;;;;;5090416;28;20034;-78
2022/04/19 01:35:34;;;;;;;3.00;2.00;;;7.70;85.90;;;;;;5077001;28;20029;-78
2022/04/19 01:37:59;;;;;;;2.50;2.00;;;7.70;86.10;;;;;;5070476;28;20104;-77
2022/04/19 01:40:25;;;;;;;3.53;2.40;;;7.70;85.90;;;;;;5070229;28;20081;-78
2022/04/19 01:42:58;;;;;;;4.72;3.25;;;7.60;86.30;;;;;;5071338;28;20028;-78
2022/04/19 01:45:25;;;;;;;3.40;2.17;;;7.60;86.10;;;;;;5073724;28;20017;-78
2022/04/19 01:47:52;;;;;;;3.05;1.95;;;7.60;86.20;;;;;;5056308;28;20016;-77
2022/04/19 01:50:18;;;;;;;2.47;1.90;;;7.60;86.50;;;;;;5056097;28;20490;-78
2022/04/19 01:52:45;;;;;;;2.55;2.15;;;7.60;86.60;;;;;;5073861;28;20017;-77
2022/04/19 01:55:13;;;;;;;3.17;1.83;;;7.50;86.50;;;;;;5073897;28;20029;-78
2022/04/19 01:57:41;;;;;;;2.75;2.05;;;7.50;86.70;;;;;;5073155;28;20020;-79
2022/04/19 02:00:07;;;;;;;2.70;1.70;;;7.50;86.20;;;;;;5074005;28;20197;-76
2022/04/19 02:02:33;;;;;;;4.07;2.30;;;7.50;85.80;;;;;;5073670;28;20031;-79
2022/04/19 02:04:58;;;;;;;3.70;1.80;;;7.40;85.80;;;;;;5073720;28;20028;-78
2022/04/19 02:07:24;;;;;;;1.52;1.17;;;7.40;85.20;;;;;;5073101;28;20024;-78
2022/04/19 02:09:49;;;;;;;1.70;1.50;;;7.40;85.10;;;;;;5073764;28;20120;-78
2022/04/19 02:12:15;;;;;;;2.17;1.60;;;7.40;84.60;;;;;;5055561;28;20035;-78
2022/04/19 02:14:41;;;;;;;2.30;1.90;;;7.40;84.40;;;;;;5073619;28;20027;-78
2022/04/19 02:17:08;;;;;;;3.92;1.45;;;7.40;84.20;;;;;;5073044;28;20035;-77
2022/04/19 02:19:37;;;;;;;2.03;1.25;;;7.40;84.40;;;;;;5073562;28;20145;-77
2022/04/19 02:22:09;;;;;;;2.92;1.73;;;7.40;84.60;;;;;;5073361;28;20052;-79
2022/04/19 02:24:35;;;;;;;2.25;1.40;;;7.40;84.60;;;;;;5073584;28;20434;-78
2022/04/19 02:27:01;;;;;;;2.75;1.80;;;7.40;84.60;;;;;;5072764;28;20028;-77
2022/04/19 02:29:27;;;;;;;1.77;1.67;;;7.40;84.80;;;;;;5073344;28;20119;-79
2022/04/19 02:31:53;;;;;;;2.15;1.83;;;7.40;84.80;;;;;;5073298;28;20508;-77
2022/04/19 02:34:19;;;;;;;2.85;1.55;;;7.40;84.60;;;;;;5055330;28;20020;-78
2022/04/19 02:36:45;;;;;;;2.20;1.75;;;7.40;84.40;;;;;;5072417;28;20021;-78
2022/04/19 02:39:11;;;;;;;2.60;1.70;;;7.30;84.10;;;;;;5055579;28;20086;-78
2022/04/19 02:41:37;;;;;;;2.58;1.67;;;7.40;83.80;;;;;;5072931;28;20029;-77
2022/04/19 02:44:03;;;;;;;2.92;1.45;;;7.30;83.90;;;;;;5073334;28;20028;-78
2022/04/19 02:46:29;;;;;;;3.30;2.15;;;7.40;83.80;;;;;;5072681;28;20020;-78
2022/04/19 02:48:58;;;;;;;4.32;2.22;;;7.40;83.80;;;;;;5073037;28;20028;-77
2022/04/19 02:51:24;;;;;;;2.35;1.67;;;7.40;83.70;;;;;;5072537;28;20086;-79
2022/04/19 02:53:50;;;;;;;2.28;1.70;;;7.40;83.70;;;;;;5071962;28;20036;-78
2022/04/19 02:56:16;;;;;;;2.65;1.40;;;7.40;83.60;;;;;;5071874;28;20020;-79
2022/04/19 02:58:44;;;;;;;3.88;1.85;;;7.40;83.80;;;;;;5054628;28;20439;-77
2022/04/19 03:01:10;;;;;;;3.17;2.05;;;7.40;83.70;;;;;;5072408;28;20035;-78
2022/04/19 03:03:35;;;;;;;2.10;1.50;;;7.40;84.00;;;;;;5073029;28;20107;-80
2022/04/19 03:06:01;;;;;;;2.83;1.65;;;7.40;84.10;;;;;;5072118;28;20023;-79
2022/04/19 03:08:27;;;;;;;2.92;1.52;;;7.40;84.50;;;;;;5054585;28;20461;-78
2022/04/19 03:10:53;;;;;;;5.38;1.80;;;7.50;84.20;;;;;;5072429;28;20115;-79
2022/04/19 03:13:19;;;;;;;2.47;2.13;;;7.50;83.90;;;;;;5072643;28;20119;-77
2022/04/19 03:15:44;;;;;;;3.15;1.70;;;7.50;83.90;;;;;;5071813;28;20035;-78
2022/04/19 03:18:09;;;;;;;3.15;1.17;;;7.50;83.90;;;;;;5072560;28;20512;-79
2022/04/19 03:20:35;;;;;;;3.45;1.77;;;7.60;84.20;;;;;;5072311;28;20035;-80
2022/04/19 03:28:29;;;;;;;1.88;1.40;;;7.70;85.30;;;;;;5072303;28;20792;-80
2022/04/19 03:30:54;;;;;;;2.85;1.92;;;7.60;85.80;;;;;;5072043;28;20028;-78
2022/04/19 03:33:20;;;;;;;6.25;2.08;;;7.60;85.90;;;;;;5072179;28;20032;-77
2022/04/19 03:35:45;;;;;;;4.50;2.30;;;7.60;86.00;;;;;;5071433;28;20032;-80
2022/04/19 03:38:11;;;;;;;6.10;2.97;;;7.60;85.90;;;;;;5072324;28;20043;-78
2022/04/19 03:40:36;;;;;;;3.63;2.25;;;7.60;86.30;;;;;;5071980;28;20380;-78
2022/04/19 03:43:05;;;;;;;3.08;1.73;;;7.60;87.00;;;;;;5071841;28;20097;-80
2022/04/19 03:45:31;;;;;;;3.17;2.00;;;7.60;87.40;;;;;;5071237;28;20021;-80
2022/04/19 03:47:56;;;;;;;2.65;2.00;;;7.60;87.90;;;;;;5071939;28;20483;-77
2022/04/19 03:50:21;;;;;;;3.58;2.10;;;7.60;88.20;;;;;;5071549;28;20032;-78
2022/04/19 03:52:50;;;;;;;4.97;1.83;;;7.50;89.00;;;;;;5071507;28;20409;-79
2022/04/19 03:55:15;;;;;;;3.25;2.03;;;7.50;89.10;;;;;;5071263;28;20111;-77
2022/04/19 03:57:41;;;;;;;3.95;2.40;;;7.50;89.40;;;;;;5071579;28;20464;-76
2022/04/19 04:00:07;;;;;;;3.45;1.80;;;7.50;89.20;;;;;;5071650;28;20041;-76
2022/04/19 04:02:33;;;;;;;3.95;2.53;;;7.50;89.20;;;;;;5071498;28;20027;-79
2022/04/19 04:04:58;;;;;;;2.65;2.13;;;7.40;89.00;;;;;;5071254;28;20025;-77
2022/04/19 04:07:27;;;;;;;3.25;2.17;;;7.40;89.20;;;;;;5070635;28;20025;-78
2022/04/19 04:09:52;;;;;;;2.70;2.30;;;7.40;88.40;;;;;;5071461;28;20063;-77
2022/04/19 04:12:18;;;;;;;3.40;1.48;;;7.50;88.10;;;;;;5071131;28;20060;-78
2022/04/19 04:14:43;;;;;;;16.00;2.72;;;7.40;87.80;;;;;;5071366;28;20016;-76
2022/04/19 04:17:10;;;;;;;2.33;1.88;;;7.40;87.70;;;;;;5071104;28;20035;-76
2022/04/19 04:19:35;;;;;;;3.97;1.98;;;7.40;86.90;;;;;;5071313;28;20020;-79
2022/04/19 04:22:01;;;;;;;2.50;1.35;;;7.40;86.10;;;;;;5070913;28;20025;-77
2022/04/19 04:24:27;;;;;;;5.15;1.85;;;7.30;86.30;;;;;;5053071;28;20020;-79
2022/04/19 04:26:52;;;;;;;2.40;1.60;;;7.30;86.50;;;;;;5070478;28;20028;-79
2022/04/19 04:29:18;;;;;;;4.55;1.83;;;7.40;86.50;;;;;;5071084;28;20021;-76
2022/04/19 04:31:43;;;;;;;2.72;1.70;;;7.40;86.20;;;;;;5070561;28;20029;-79
2022/04/19 04:34:09;;;;;;;3.05;1.85;;;7.40;86.40;;;;;;5071080;28;20042;-77
2022/04/19 04:36:35;;;;;;;2.95;1.48;;;7.30;86.90;;;;;;5070114;28;20057;-77
2022/04/19 04:39:00;;;;;;;2.83;1.60;;;7.40;87.60;;;;;;5071041;28;20606;-77
2022/04/19 04:41:26;;;;;;;2.33;1.50;;;7.30;87.20;;;;;;5070362;28;20048;-79
2022/04/19 04:43:51;;;;;;;3.15;1.60;;;7.30;86.80;;;;;;5070783;28;20035;-78
2022/04/19 04:51:45;;;;;;;5.32;2.00;;;7.20;86.80;;;;;;5070397;28;20116;-79
2022/04/19 04:54:11;;;;;;;3.17;2.22;;;7.20;86.60;;;;;;5070764;28;20687;-77
2022/04/19 04:56:36;;;;;;;2.78;2.10;;;7.20;86.40;;;;;;5069970;28;20029;-76
2022/04/19 04:59:02;;;;;;;4.75;2.08;;;7.20;86.40;;;;;;5070763;28;20024;-77
2022/04/19 05:01:27;;;;;;;3.22;1.75;;;7.20;86.30;;;;;;5070380;28;20342;-76
2022/04/19 05:03:53;;;;;;;2.35;1.67;;;7.30;85.70;;;;;;5070695;28;20052;-76
2022/04/19 05:06:18;;;;;;;6.68;2.15;;;7.30;85.60;;;;;;5069896;28;20099;-79
2022/04/19 05:08:44;;;;;;;2.75;1.70;;;7.30;85.80;;;;;;5070399;28;20594;-78
2022/04/19 05:11:09;;;;;;;2.22;1.38;;;7.40;85.60;;;;;;5070293;28;20032;-78
2022/04/19 05:13:35;;;;;;;3.08;1.92;;;7.40;85.10;;;;;;5070639;28;20028;-76
2022/04/19 05:16:01;;;;;;;1.73;1.30;;;7.40;84.70;;;;;;5070273;28;20016;-77
2022/04/19 05:18:27;;;;;;;2.35;1.85;;;7.40;84.50;;;;;;5051851;28;20450;-79
2022/04/19 05:20:53;;;;;;;9.60;1.77;;;7.40;84.90;;;;;;5068505;28;20036;-78
2022/04/19 05:23:19;;;;;;;2.90;1.88;;;7.40;85.00;;;;;;5070239;28;20070;-76
2022/04/19 05:25:45;;;;;;;2.38;1.38;;;7.50;85.40;;;;;;5069768;28;20024;-76
2022/04/19 05:28:11;;;;;;;3.17;1.50;;;7.60;84.90;;;;;;5070611;28;20475;-78
2022/04/19 05:30:36;;;;;;;3.33;2.13;;;7.60;84.50;;;;;;5070138;28;20041;-78
2022/04/19 05:33:02;;;;;;;6.22;1.88;;;7.70;84.70;;;;;;5070300;28;20358;-78
2022/04/19 05:35:28;;;;;;;2.05;1.52;;;7.70;85.00;;;;;;5069324;28;20028;-77
2022/04/19 05:37:55;;;;;;;3.58;2.35;;;7.80;84.60;;;;;;5070270;28;20017;-79
2022/04/19 05:40:21;;;;;;;3.85;1.63;;;7.70;83.80;;;;;;5070185;28;20085;-78
2022/04/19 05:42:46;;;;;;;2.45;1.60;;;7.80;82.80;;;;;;5069922;28;20028;-77
2022/04/19 05:45:12;;;;;;;4.07;2.03;;;7.80;83.10;;;;;;5069779;28;20016;-77
2022/04/19 05:47:37;;;;;;;3.22;1.70;;;7.70;82.20;;;;;;5070283;28;20403;-78
2022/04/19 05:50:03;;;;;;;2.72;1.55;;;7.70;83.00;;;;;;5070024;28;20111;-79
2022/04/19 05:52:28;;;;;;;3.10;1.80;;;7.60;83.10;;;;;;5069906;28;20020;-79
2022/04/19 05:54:54;;;;;;;2.60;1.83;;;7.60;82.80;;;;;;5070162;28;20440;-79
2022/04/19 05:57:19;;;;;;;4.53;2.08;;;7.50;83.50;;;;;;5069649;28;20062;-76
2022/04/19 05:59:45;;;;;;;2.97;2.00;;;7.50;83.00;;;;;;5051956;28;20100;-77
2022/04/19 06:04:54;;;;;;;4.43;1.95;;;7.60;83.20;;;;;;5070067;28;20126;-78
2022/04/19 06:07:21;;;;;;;3.17;1.80;;;7.60;83.00;;;;;;5051372;28;20052;-77
2022/04/19 06:09:47;;;;;;;6.30;2.15;;;7.60;83.20;;;;;;5068620;28;20123;-77
2022/04/19 06:12:13;;;;;;;4.82;2.38;;;7.70;83.40;;;;;;5069564;28;20107;-78
2022/04/19 06:14:38;;;;;;;2.35;1.67;;;7.60;84.10;;;;;;5051897;28;20464;-78
2022/04/19 06:17:04;;;;;;;9.32;2.60;;;7.60;83.60;;;;;;5069172;28;20029;-76
2022/04/19 06:19:30;;;;;;;2.60;2.13;;;7.60;83.70;;;;;;5069746;28;20090;-78
2022/04/19 06:21:59;;;;;;;2.72;1.58;;;7.60;82.90;;;;;;5051641;28;20036;-79
2022/04/19 06:24:25;;;;;;;3.83;2.13;;;7.60;83.10;;;;;;5069887;28;20167;-79
2022/04/19 06:26:51;;;;;;;2.85;2.13;;;7.70;83.50;;;;;;5069238;28;20016;-77
2022/04/19 06:29:17;;;;;;;2.53;2.08;;;7.60;84.10;;;;;;5071705;28;20148;-78
2022/04/19 06:31:43;;;;;;;3.85;2.42;;;7.70;83.80;;;;;;5073076;28;20043;-78
2022/04/19 06:34:09;;;;;;;3.28;1.88;;;7.80;83.70;;;;;;5073385;28;20025;-76
2022/04/19 06:36:35;;;;;;;2.65;1.75;;;7.70;83.60;;;;;;5072609;28;20032;-78
2022/04/19 06:39:01;;;;;;;4.22;2.15;;;7.70;83.90;;;;;;5073275;28;20472;-76
2022/04/19 06:41:27;;;;;;;2.50;1.90;;;7.80;84.20;;;;;;5073251;28;20036;-77
2022/04/19 06:43:53;;;;;;;3.10;2.03;;;7.80;83.90;;;;;;5073213;28;20031;-76
2022/04/19 06:46:19;;;;;;;2.20;1.73;;;7.80;84.30;;;;;;5054674;28;20441;-77
2022/04/19 06:48:44;;;;;;;4.10;2.30;;;7.80;84.20;;;;;;5072900;28;20031;-80
2022/04/19 06:51:10;;;;;;;3.65;2.10;;;7.80;84.40;;;;;;5072533;28;20036;-78
2022/04/19 06:53:36;;;;;;;3.75;2.20;;;7.80;84.30;;;;;;5055167;28;20033;-79
2022/04/19 06:56:04;;;;;;;4.22;2.05;;;7.90;84.40;;;;;;5072367;28;20020;-79
2022/04/19 06:58:30;;;;;;;2.22;2.03;;;7.90;84.20;;;;;;5072685;28;20158;-77
2022/04/19 07:00:56;;;;;;;6.75;1.98;;;8.00;84.10;;;;;;5071147;28;20557;-79
2022/04/19 07:03:22;;;;;;;3.22;1.75;;;8.00;84.10;;;;;;5072934;28;20032;-80
2022/04/19 07:05:48;;;;;;;6.13;2.28;;;8.10;84.00;;;;;;5072026;28;20095;-78
2022/04/19 07:08:13;;;;;;;3.22;1.92;;;8.20;84.20;;;;;;5071454;28;20162;-80
2022/04/19 07:10:38;;;;;;;2.83;1.70;;;8.10;84.40;;;;;;5072482;28;20039;-79
2022/04/19 07:13:04;;;;;;;2.63;1.63;;;8.20;84.10;;;;;;5072478;28;20039;-78
2022/04/19 07:15:30;;;;;;;5.68;2.47;;;8.30;83.90;;;;;;5071897;28;20036;-79
2022/04/19 07:17:55;;;;;;;4.00;1.88;;;8.40;83.10;;;;;;5072534;28;20024;-78
2022/04/19 07:28:36;;;;;;;2.17;1.77;;;8.30;83.60;;;;;;5072689;28;20483;-80
2022/04/19 07:31:05;;;;;;;2.95;1.83;;;8.40;83.50;;;;;;5072030;28;20111;-78
2022/04/19 07:33:31;;;;;;;3.50;1.65;;;8.40;83.80;;;;;;5072280;28;20035;-78
2022/04/19 07:35:57;;;;;;;2.88;1.85;;;8.50;83.90;;;;;;5071431;28;20055;-80
2022/04/19 07:38:23;;;;;;;3.95;1.92;;;8.60;84.00;;;;;;5054232;28;20374;-80
2022/04/19 07:40:48;;;;;;;2.03;1.60;;;8.70;83.80;;;;;;5071212;28;20064;-79
2022/04/19 07:43:14;;;;;;;5.82;1.80;;;8.80;83.60;;;;;;5072186;28;20504;-79
2022/04/19 07:45:40;;;;;;;3.53;2.28;;;8.90;83.40;;;;;;5071372;28;20028;-80
2022/04/19 07:48:06;;;;;;;6.53;2.03;;;9.00;83.00;;;;;;5071946;28;20480;-79
2022/04/19 07:50:34;;;;;;;5.43;2.10;;;9.10;82.10;;;;;;5071830;28;20024;-80
2022/04/19 07:53:00;;;;;;;2.30;1.63;;;9.20;82.00;;;;;;5071698;28;20469;-79
2022/04/19 07:55:25;;;;;;;3.17;1.70;;;9.20;81.10;;;;;;5071174;28;20106;-79
2022/04/19 07:57:51;;;;;;;2.38;1.60;;;9.40;81.30;;;;;;5071882;28;20021;-80
2022/04/19 08:00:17;;;;;;;2.65;1.88;;;9.60;81.40;;;;;;5071764;28;20064;-78
2022/04/19 08:02:54;;;;;;;2.65;1.92;;;9.70;80.30;;;;;;5071372;28;20087;-80
2022/04/19 08:05:20;;;;;;;2.30;1.75;;;9.90;79.30;;;;;;5071076;28;20021;-80
2022/04/19 08:07:48;;;;;;;3.35;2.10;;;10.00;78.20;;;;;;5071662;28;20027;-81
2022/04/19 08:10:13;;;;;;;6.63;3.13;;;10.10;78.60;;;;;;5071903;28;20123;-79
2022/04/19 08:12:39;;;;;;;3.13;2.00;;;10.30;77.90;;;;;;5071163;28;20186;-81
2022/04/19 08:15:05;;;;;;;5.28;2.20;;;10.40;74.90;;;;;;5071480;28;20033;-79
2022/04/19 08:17:32;;;;;;;5.18;2.83;;;10.40;75.70;;;;;;5070874;28;20594;-80
2022/04/19 08:19:57;;;;;;;4.82;2.03;;;10.50;75.70;;;;;;5070081;28;20131;-79
2022/04/19 08:22:23;;;;;;;4.90;2.33;;;10.60;76.60;;;;;;5071125;28;20048;-80
2022/04/19 08:24:49;;;;;;;3.88;2.10;;;10.80;76.00;;;;;;5071179;28;20027;-78
2022/04/19 08:27:16;;;;;;;3.65;2.42;;;10.70;73.40;;;;;;5052605;28;20021;-80
2022/04/19 08:29:43;;;;;;;5.05;2.35;;;10.90;75.40;;;;;;5070668;28;20025;-80
2022/04/19 08:32:09;;;;;;;5.03;2.65;;;11.00;74.00;;;;;;5070879;28;20408;-81
2022/04/19 08:34:34;;;;;;;3.67;1.90;;;11.10;72.90;;;;;;5052856;28;20444;-78
2022/04/19 08:37:02;;;;;;;3.72;2.45;;;11.20;71.40;;;;;;5070345;28;20038;-79
2022/04/19 08:39:28;;;;;;;3.60;2.15;;;11.40;72.20;;;;;;5070842;28;20016;-81
2022/04/19 08:41:54;;;;;;;4.05;1.98;;;11.40;71.40;;;;;;5070702;28;20026;-80
2022/04/19 08:44:19;;;;;;;5.88;2.45;;;11.50;72.60;;;;;;5070867;28;20028;-81
2022/04/19 08:46:46;;;;;;;2.42;2.00;;;11.60;69.10;;;;;;5052033;28;20017;-81
2022/04/19 08:49:11;;;;;;;5.63;2.35;;;11.60;68.30;;;;;;5070769;28;20103;-82
2022/04/19 08:51:39;;;;;;;7.57;2.08;;;11.60;70.30;;;;;;5068420;28;20128;-79
2022/04/19 08:59:37;;;;;;;10.40;2.85;;;11.70;65.50;;;;;;5070977;28;20495;-80
2022/04/19 09:02:05;;;;;;;6.40;2.72;;;11.70;67.00;;;;;;5070381;28;20020;-80
2022/04/19 09:04:30;;;;;;;4.15;2.58;;;11.80;65.20;;;;;;5070539;28;20028;-81
2022/04/19 09:06:58;;;;;;;6.25;2.58;;;11.80;64.30;;;;;;5070059;28;20828;-80
2022/04/19 09:09:25;;;;;;;4.50;2.45;;;11.70;64.90;;;;;;5069139;28;20453;-80
2022/04/19 09:11:53;;;;;;;3.85;2.55;;;11.80;63.50;;;;;;5069888;28;20525;-80
2022/04/19 09:14:18;;;;;;;4.60;3.00;;;12.00;66.80;;;;;;5052458;28;20111;-82
2022/04/19 09:16:45;;;;;;;4.78;2.83;;;12.30;66.80;;;;;;5069504;28;20028;-81
2022/04/19 09:19:26;;;;;;;6.20;2.95;;;12.50;63.50;;;;;;5070237;28;20488;-81
2022/04/19 09:21:52;;;;;;;3.97;2.58;;;12.60;64.40;;;;;;5070195;28;20033;-80
2022/04/19 09:24:18;;;;;;;4.55;2.47;;;12.80;64.40;;;;;;5070333;28;20086;-79
2022/04/19 09:26:50;;;;;;;3.75;2.65;;;12.90;64.50;;;;;;5069927;28;20073;-76
2022/04/19 09:29:23;;;;;;;5.00;2.95;;;13.00;61.80;;;;;;5070195;28;20019;-80
2022/04/19 09:31:54;;;;;;;5.30;3.13;;;12.70;62.20;;;;;;5051966;28;20073;-79
2022/04/19 09:34:33;;;;;;;4.75;3.20;;;12.50;65.00;;;;;;5069943;28;20460;-79
2022/04/19 09:37:13;;;;;;;4.82;3.08;;;12.60;65.00;;;;;;5069409;28;20031;-79
2022/04/19 09:39:44;;;;;;;4.20;2.58;;;12.90;62.30;;;;;;5069972;28;20457;-79
2022/04/19 09:42:14;;;;;;;5.80;3.28;;;13.00;62.90;;;;;;5069895;28;20074;-82
2022/04/19 09:44:43;;;;;;;5.65;2.95;;;13.00;61.80;;;;;;5069832;28;20712;-81
2022/04/19 09:47:13;;;;;;;5.55;3.28;;;13.00;61.10;;;;;;5069414;28;20027;-81
2022/04/19 09:49:46;;;;;;;4.88;3.17;;;13.30;60.60;;;;;;5069881;28;20061;-82
2022/04/19 09:52:38;;;;;;;4.68;2.88;;;13.30;59.70;;;;;;5069866;28;20033;-79
2022/04/19 09:55:11;;;;;;;4.70;2.65;;;13.30;61.40;;;;;;5070097;28;20441;-82
2022/04/19 09:57:38;;;;;;;3.83;2.20;;;13.40;60.40;;;;;;5069831;28;20037;-80
2022/04/19 10:00:07;;;;;;;5.80;2.90;;;13.50;60.10;;;;;;5070002;28;20445;-81
2022/04/19 10:08:22;;;;;;;5.88;2.72;;;13.80;60.10;;;;;;5074395;28;20081;-81
2022/04/19 10:10:51;;;;;;;4.00;2.65;;;14.10;61.50;;;;;;5073638;28;20036;-82
2022/04/19 10:13:25;;;;;;;4.53;2.80;;;14.30;59.80;;;;;;5073866;28;20039;-82
2022/04/19 10:15:51;;;;;;;5.70;2.90;;;14.50;58.30;;;;;;5073350;28;20021;-82
2022/04/19 10:18:17;;;;;;;4.13;2.58;;;14.40;57.90;;;;;;5073927;28;20036;-80
2022/04/19 10:20:53;;;;;;;4.43;2.58;;;14.40;56.90;;;;;;5073275;28;20040;-81
2022/04/19 10:23:19;;;;;;;6.28;2.53;;;14.30;58.30;;;;;;5073790;28;20368;-80
2022/04/19 10:25:48;;;;;;;5.40;2.83;;;14.40;57.90;;;;;;5072892;28;20056;-83
2022/04/19 10:28:15;;;;;;;4.43;2.97;;;14.30;59.00;;;;;;5073788;28;20056;-82
2022/04/19 10:30:52;;;;;;;4.68;2.70;;;14.40;56.60;;;;;;5072211;28;20060;-80
2022/04/19 10:33:47;;;;;;;2.70;1.80;;;14.40;56.70;;;;;;5073564;28;20035;-80
2022/04/19 10:36:22;;;;;;;3.80;2.13;;;14.50;57.00;;;;;;5072568;28;20453;-83
2022/04/19 10:39:13;;;;;;;4.47;2.85;;;14.40;56.10;;;;;;5073513;28;20086;-82
2022/04/19 10:41:55;;;;;;;3.70;2.33;;;14.50;54.40;;;;;;5073336;28;20044;-81
2022/04/19 10:44:52;;;;;;;4.03;2.50;;;14.50;56.10;;;;;;5073645;28;20151;-82
2022/04/19 10:47:20;;;;;;;3.95;2.13;;;14.60;54.90;;;;;;5055740;28;20024;-82
2022/04/19 10:50:02;;;;;;;3.58;2.33;;;14.70;55.90;;;;;;5073250;28;20062;-81
2022/04/19 10:52:38;;;;;;;6.80;2.28;;;14.60;56.40;;;;;;5072859;28;20032;-81
2022/04/19 10:55:08;;;;;;;4.70;2.80;;;14.60;57.00;;;;;;5073268;28;20040;-83
2022/04/19 11:00:37;;;;;;;4.63;1.85;;;14.70;57.50;;;;;;5073278;28;20515;-82
2022/04/19 11:03:07;;;;;;;3.33;1.85;;;14.90;55.50;;;;;;5072802;28;20027;-81
2022/04/19 11:05:41;;;;;;;3.95;2.03;;;14.90;57.30;;;;;;5070763;28;20074;-81
2022/04/19 11:08:19;;;;;;;3.38;2.40;;;15.10;56.20;;;;;;5072834;28;20078;-80
2022/04/19 11:10:45;;;;;;;7.53;2.08;;;15.20;55.20;;;;;;5070938;28;20460;-82
2022/04/19 11:13:11;;;;;;;3.47;1.83;;;15.20;56.00;;;;;;5072605;28;20111;-82
2022/04/19 11:15:38;;;;;;;4.13;2.22;;;15.10;54.30;;;;;;5070823;28;20025;-81
2022/04/19 11:18:23;;;;;;;4.05;2.25;;;15.30;53.90;;;;;;5072571;28;20372;-80
2022/04/19 11:20:52;;;;;;;4.30;1.98;;;15.50;53.60;;;;;;5072351;28;20480;-80
2022/04/19 11:23:24;;;;;;;4.85;2.03;;;15.60;52.80;;;;;;5054450;28;20048;-82
2022/04/19 11:25:51;;;;;;;1.85;1.38;;;15.50;55.00;;;;;;5071524;28;20032;-81
2022/04/19 11:28:22;;;;;;;7.05;2.15;;;15.40;54.10;;;;;;5072538;28;20032;-81
2022/04/19 11:30:50;;;;;;;3.08;1.67;;;15.30;53.60;;;;;;5071850;28;20107;-83
2022/04/19 11:33:31;;;;;;;5.85;1.60;;;15.50;56.80;;;;;;5072477;28;20027;-80
2022/04/19 11:35:59;;;;;;;2.28;1.63;;;15.60;54.30;;;;;;5071584;28;20508;-82
2022/04/19 11:38:25;;;;;;;3.70;1.50;;;15.70;53.80;;;;;;5072156;28;20012;-81
2022/04/19 11:49:05;;;;;;;3.65;1.73;;;16.30;52.00;;;;;;5072104;28;20107;-81
2022/04/19 11:51:35;;;;;;;2.72;1.25;;;16.20;54.60;;;;;;5070055;28;20482;-81
2022/04/19 11:54:00;;;;;;;2.55;1.38;;;16.10;53.30;;;;;;5071874;28;20035;-82
2022/04/19 11:56:26;;;;;;;2.88;1.40;;;16.20;51.70;;;;;;5070844;28;20024;-81
2022/04/19 11:58:52;;;;;;;2.92;1.65;;;16.10;52.70;;;;;;5071910;28;20154;-83
2022/04/19 12:01:18;;;;;;;2.10;1.30;;;16.10;53.20;;;;;;5071352;28;20043;-81
2022/04/19 12:03:44;;;;;;;3.58;1.70;;;16.20;52.50;;;;;;5071639;28;20028;-83
2022/04/19 12:06:14;;;;;;;2.53;1.77;;;16.30;54.30;;;;;;5070820;28;20025;-83
2022/04/19 12:08:43;;;;;;;2.47;1.60;;;16.50;51.70;;;;;;5071596;28;20369;-81
2022/04/19 12:11:20;;;;;;;5.68;2.13;;;16.40;52.80;;;;;;5071354;28;20047;-81
2022/04/19 12:13:48;;;;;;;2.85;1.48;;;16.40;51.60;;;;;;5071617;28;20024;-80
2022/04/19 12:16:34;;;;;;;2.70;1.40;;;16.10;51.90;;;;;;5070901;28;20016;-81
2022/04/19 12:19:02;;;;;;;2.50;1.20;;;16.00;52.30;;;;;;5071455;28;20021;-80
2022/04/19 12:21:38;;;;;;;3.90;0.98;;;15.90;52.60;;;;;;5071084;28;20157;-80
2022/04/19 12:24:05;;;;;;;2.67;1.13;;;15.80;51.90;;;;;;5071395;28;20449;-82
2022/04/19 12:26:31;;;;;;;3.25;1.60;;;15.70;52.60;;;;;;5070368;28;20020;-80
2022/04/19 12:29:11;;;;;;;3.17;1.23;;;15.80;51.60;;;;;;5071020;28;20039;-81
2022/04/19 12:31:39;;;;;;;2.63;1.83;;;15.90;51.10;;;;;;5070697;28;20071;-80
2022/04/19 12:34:05;;;;;;;2.15;1.05;;;15.90;51.50;;;;;;5070949;28;20032;-79
2022/04/19 12:36:48;;;;;;;2.58;1.40;;;16.00;50.70;;;;;;5070075;28;20818;-82
2022/04/19 12:39:15;;;;;;;1.75;0.95;;;16.10;50.90;;;;;;5070845;28;20012;-81
2022/04/19 12:41:43;;;;;;;2.40;1.60;;;16.20;51.30;;;;;;5070529;28;20036;-80
2022/04/19 12:44:13;;;;;;;3.00;1.23;;;16.30;50.60;;;;;;5052870;28;20365;-82
2022/04/19 12:46:43;;;;;;;5.05;1.20;;;16.30;52.10;;;;;;5070015;28;20047;-80
2022/04/19 12:49:29;;;;;;;1.77;1.00;;;16.30;50.50;;;;;;5070690;28;20017;-80
2022/04/19 12:52:05;;;;;;;2.53;1.05;;;16.20;51.00;;;;;;5052744;28;20155;-80
2022/04/19 12:54:33;;;;;;;2.55;1.10;;;16.10;51.50;;;;;;5070593;28;20036;-81
2022/04/19 12:57:18;;;;;;;4.72;1.10;;;16.00;51.80;;;;;;5070453;28;20214;-83
2022/04/19 12:59:44;;;;;;;1.15;0.80;;;16.30;52.20;;;;;;5070599;28;20346;-81
2022/04/19 13:02:13;;;;;;;2.78;0.82;;;16.30;50.30;;;;;;5070556;28;20043;-81
2022/04/19 13:04:39;;;;;;;1.77;0.90;;;16.50;51.30;;;;;;5070509;28;20486;-81
2022/04/19 13:12:33;;;;;;;1.75;0.70;;;16.30;50.60;;;;;;5070366;28;20064;-82
2022/04/19 13:15:00;;;;;;;2.00;0.80;;;16.30;51.00;;;;;;5070337;28;20020;-80
2022/04/19 13:17:30;;;;;;;1.50;0.70;;;16.40;50.80;;;;;;5051670;28;20028;-81
2022/04/19 13:19:55;;;;;;;4.18;0.90;;;16.60;50.10;;;;;;5070339;28;20453;-82
2022/04/19 13:22:21;;;;;;;1.92;0.80;;;16.80;50.50;;;;;;5069977;28;20059;-81
2022/04/19 13:24:46;;;;;;;3.78;0.73;;;17.00;49.30;;;;;;5070462;28;20032;-83
2022/04/19 13:27:12;;;;;;;1.27;0.60;;;16.90;49.40;;;;;;5069685;28;20025;-82
2022/04/19 13:29:39;;;;;;;0.80;0.65;;;16.90;49.30;;;;;;5070356;28;20032;-79
2022/04/19 13:32:06;;;;;;;4.35;0.80;;;17.00;48.40;;;;;;5069788;28;20021;-83
2022/04/19 13:34:32;;;;;;;2.58;0.70;;;17.10;49.40;;;;;;5070334;28;20021;-82
2022/04/19 13:36:58;;;;;;;2.17;1.02;;;17.30;48.10;;;;;;5069451;28;20460;-81
2022/04/19 13:39:24;;;;;;;1.95;0.65;;;17.40;48.00;;;;;;5056894;28;20070;-82
2022/04/19 13:41:50;;;;;;;1.90;0.80;;;17.30;48.60;;;;;;5076622;28;20107;-80
2022/04/19 13:44:17;;;;;;;4.35;0.82;;;17.10;48.30;;;;;;5076899;28;20101;-79